ORD weather

Chicago O'Hare International Airport
Chicago, Illinois, United States

Public forecast

Using degrees Fahrenheit for public forecast. Weather courtesy of forecast.io.

Current aviation weather report (METAR) for Chicago O'Hare International Airport

Retrieved 2019/10/13 18:51 UTC (20 minutes ago):

KORD 131851Z 24015G25KT 10SM BKN050 BKN230 11/00 A2980 RMK AO2 PK WND 24033/1814 SLP095 T01110000

Aviation forecast (TAF) for Chicago O'Hare International Airport

Retrieved 2019/10/13 18:46 UTC (25 minutes ago):

TAF KORD 131744Z 1318/1424 25016G28KT P6SM BKN050 BKN100 FM132300 27010KT P6SM BKN050 FM140400 27007KT P6SM SCT050 FM142100 24009KT P6SM FEW250